Time;durP1;ratioP1;P1;durP2;ratioP2;P2;SDS_P1;SDS_P2;PMS_P1;PMS_P2;Temp;Humidity;BMP_temperature;BMP_pressure;BME280_temperature;BME280_humidity;BME280_pressure;Samples;Min_cycle;Max_cycle;Signal;HPM_P1;HPM_P2
2023/06/12 00:00:41;;;;;;;9.07;4.18;;;25.50;37.90;;;;;;5015438;28;20033;-63
2023/06/12 00:03:07;;;;;;;6.97;4.25;;;25.50;37.90;;;;;;5023491;28;20029;-63
2023/06/12 00:05:33;;;;;;;7.05;4.25;;;25.40;38.10;;;;;;5026037;28;20485;-62
2023/06/12 00:08:00;;;;;;;8.30;4.13;;;25.40;38.30;;;;;;5025939;28;20029;-62
2023/06/12 00:10:26;;;;;;;7.00;4.30;;;25.30;38.40;;;;;;5022985;28;20033;-62
2023/06/12 00:12:52;;;;;;;7.25;4.32;;;25.30;38.50;;;;;;5022579;28;20133;-63
2023/06/12 00:15:18;;;;;;;6.93;4.13;;;25.30;38.40;;;;;;5024430;28;20081;-62
2023/06/12 00:17:44;;;;;;;7.15;4.03;;;25.20;38.50;;;;;;5021228;28;20426;-62
2023/06/12 00:20:10;;;;;;;7.95;4.30;;;25.20;38.30;;;;;;5021313;28;20030;-62
2023/06/12 00:22:39;;;;;;;7.32;3.80;;;25.20;38.40;;;;;;5022496;28;20072;-62
2023/06/12 00:25:07;;;;;;;7.07;3.90;;;25.20;38.40;;;;;;5022390;28;20348;-63
2023/06/12 00:27:33;;;;;;;8.02;4.00;;;25.10;38.40;;;;;;5020235;28;20022;-62
2023/06/12 00:29:59;;;;;;;8.77;4.38;;;25.10;38.50;;;;;;5020079;28;20418;-63
2023/06/12 00:32:25;;;;;;;7.55;4.25;;;25.10;38.50;;;;;;5010368;28;20033;-62
2023/06/12 00:34:51;;;;;;;8.40;3.80;;;25.10;38.80;;;;;;5017875;28;20040;-62
2023/06/12 00:37:17;;;;;;;7.00;3.78;;;25.10;38.90;;;;;;5026937;28;20108;-62
2023/06/12 00:39:46;;;;;;;9.13;4.22;;;25.00;38.80;;;;;;5024737;28;20085;-62
2023/06/12 00:42:12;;;;;;;7.13;3.97;;;25.00;38.80;;;;;;5019995;28;20041;-62
2023/06/12 00:44:37;;;;;;;7.30;4.18;;;25.00;39.00;;;;;;5029597;28;20021;-62
2023/06/12 00:47:04;;;;;;;7.18;4.22;;;24.90;39.00;;;;;;5027742;28;20025;-62
2023/06/12 00:49:30;;;;;;;7.40;4.07;;;24.90;39.30;;;;;;5020051;28;20026;-62
2023/06/12 00:51:56;;;;;;;7.68;3.90;;;24.90;39.40;;;;;;5021786;28;20037;-62
2023/06/12 00:54:22;;;;;;;8.15;4.53;;;24.80;39.40;;;;;;5022133;28;20037;-65
2023/06/12 00:56:48;;;;;;;7.30;3.78;;;24.80;39.40;;;;;;5020707;28;20562;-63
2023/06/12 00:59:16;;;;;;;8.25;3.83;;;24.80;39.30;;;;;;5016283;28;20034;-63
2023/06/12 01:01:42;;;;;;;7.70;4.40;;;24.80;39.50;;;;;;5025549;28;20335;-63
2023/06/12 01:04:09;;;;;;;7.43;4.13;;;24.70;39.50;;;;;;5020332;28;20111;-62
2023/06/12 01:06:54;;;;;;;8.82;4.18;;;24.70;39.60;;;;;;5018326;28;20121;-63
2023/06/12 01:09:36;;;;;;;8.30;4.10;;;24.70;39.80;;;;;;5019254;28;20081;-62
2023/06/12 01:12:04;;;;;;;10.10;4.28;;;24.60;39.50;;;;;;5019798;28;20116;-62
2023/06/12 01:14:30;;;;;;;7.28;4.00;;;24.60;39.80;;;;;;5024997;28;20093;-62
2023/06/12 01:17:02;;;;;;;8.45;3.90;;;24.60;39.80;;;;;;5015548;28;20350;-62
2023/06/12 01:19:29;;;;;;;9.32;4.10;;;24.50;39.90;;;;;;5018174;28;20049;-63
2023/06/12 01:21:59;;;;;;;8.10;4.45;;;24.50;39.90;;;;;;5021569;28;20438;-63
2023/06/12 01:24:53;;;;;;;7.07;3.97;;;24.50;39.70;;;;;;5010066;28;20531;-63
2023/06/12 01:27:25;;;;;;;8.13;4.47;;;24.40;39.70;;;;;;5009391;28;20203;-62
2023/06/12 01:30:07;;;;;;;7.40;4.13;;;24.40;39.90;;;;;;5024224;28;20534;-62
2023/06/12 01:32:37;;;;;;;8.75;4.32;;;24.40;39.90;;;;;;5026121;28;20034;-62
2023/06/12 01:35:22;;;;;;;8.52;4.40;;;24.40;40.20;;;;;;5027948;28;20409;-62
2023/06/12 01:37:53;;;;;;;6.80;3.75;;;24.30;40.40;;;;;;5014392;28;20057;-62
2023/06/12 01:40:26;;;;;;;7.57;3.70;;;24.30;40.50;;;;;;5025513;28;20390;-62
2023/06/12 01:42:53;;;;;;;6.43;3.67;;;24.20;40.60;;;;;;5023315;28;20128;-63
2023/06/12 01:45:19;;;;;;;6.97;3.90;;;24.20;40.30;;;;;;5018353;28;20493;-63
2023/06/12 01:47:45;;;;;;;7.10;4.20;;;24.20;40.10;;;;;;5022672;28;20436;-62
2023/06/12 01:50:13;;;;;;;7.13;3.97;;;24.20;40.10;;;;;;5011858;28;20028;-62
2023/06/12 01:52:40;;;;;;;8.32;4.05;;;24.20;40.20;;;;;;5024283;28;20037;-62
2023/06/12 01:55:07;;;;;;;8.27;4.63;;;24.20;40.10;;;;;;5018499;28;20025;-62
2023/06/12 01:57:36;;;;;;;7.38;4.53;;;24.20;40.20;;;;;;5024293;28;20036;-62
2023/06/12 02:00:04;;;;;;;8.80;4.38;;;24.10;40.40;;;;;;5038258;28;20025;-62
2023/06/12 02:02:33;;;;;;;7.65;4.30;;;24.10;40.30;;;;;;5026599;28;20044;-62
2023/06/12 02:04:59;;;;;;;9.20;4.28;;;24.10;40.50;;;;;;5022850;28;20603;-62
2023/06/12 02:07:26;;;;;;;8.02;4.57;;;24.10;40.40;;;;;;5035494;28;20036;-62
2023/06/12 02:09:52;;;;;;;7.10;3.88;;;24.10;40.60;;;;;;5018480;28;20362;-62
2023/06/12 02:12:19;;;;;;;7.30;4.18;;;24.00;40.70;;;;;;5023736;28;20037;-62
2023/06/12 02:14:47;;;;;;;7.25;4.07;;;24.00;40.80;;;;;;5023480;28;20063;-62
2023/06/12 02:17:13;;;;;;;10.75;4.55;;;24.00;40.80;;;;;;5019075;28;20034;-63
2023/06/12 02:19:39;;;;;;;7.35;4.13;;;23.90;40.80;;;;;;5018976;28;20037;-62
2023/06/12 02:22:05;;;;;;;8.60;4.45;;;23.90;40.80;;;;;;5023616;28;20025;-62
2023/06/12 02:24:32;;;;;;;8.52;3.80;;;23.90;41.00;;;;;;5008718;28;20034;-63
2023/06/12 02:27:00;;;;;;;9.65;4.15;;;23.80;41.00;;;;;;5012374;28;20075;-62
2023/06/12 02:29:26;;;;;;;7.75;3.67;;;23.80;41.10;;;;;;5023762;28;20509;-62
2023/06/12 02:31:54;;;;;;;8.15;4.07;;;23.80;41.00;;;;;;5023321;28;20038;-63
2023/06/12 02:34:20;;;;;;;7.57;4.13;;;23.80;41.00;;;;;;5004893;28;20515;-62
2023/06/12 02:36:47;;;;;;;7.85;4.05;;;23.70;41.10;;;;;;5018916;28;20112;-62
2023/06/12 02:39:18;;;;;;;7.05;4.07;;;23.70;41.00;;;;;;5017004;28;20026;-62
2023/06/12 02:41:47;;;;;;;7.28;4.00;;;23.70;40.80;;;;;;5018716;28;20052;-62
2023/06/12 02:44:14;;;;;;;9.45;4.00;;;23.70;40.90;;;;;;5018024;28;20030;-62
2023/06/12 02:46:52;;;;;;;8.15;3.83;;;23.70;41.50;;;;;;5015067;28;20053;-62
2023/06/12 02:49:20;;;;;;;6.63;4.03;;;23.70;40.70;;;;;;5017651;28;20033;-62
2023/06/12 02:51:46;;;;;;;8.45;4.00;;;23.70;40.80;;;;;;5006631;28;20087;-62
2023/06/12 02:54:14;;;;;;;7.40;4.30;;;23.60;40.90;;;;;;5019875;28;20025;-62
2023/06/12 02:56:44;;;;;;;7.35;3.85;;;23.60;41.10;;;;;;5021198;28;20029;-62
2023/06/12 02:59:15;;;;;;;;;;;23.60;41.00;;;;;;5022948;28;20080;-62
2023/06/12 03:01:43;;;;;;;8.02;3.65;;;23.50;40.90;;;;;;5021851;28;20234;-62
2023/06/12 03:04:15;;;;;;;8.52;3.90;;;23.50;40.90;;;;;;5017828;28;20044;-62
2023/06/12 03:06:44;;;;;;;7.78;3.88;;;23.50;41.10;;;;;;5017629;28;20022;-62
2023/06/12 03:09:11;;;;;;;7.68;4.30;;;23.50;41.00;;;;;;5016970;28;20114;-62
2023/06/12 03:11:37;;;;;;;7.30;4.18;;;23.50;41.00;;;;;;5016875;28;20124;-62
2023/06/12 03:14:07;;;;;;;7.35;3.67;;;23.50;41.50;;;;;;5023220;28;20026;-62
2023/06/12 03:16:33;;;;;;;7.47;4.07;;;23.40;40.90;;;;;;5017429;28;20033;-62
2023/06/12 03:18:59;;;;;;;8.65;4.00;;;23.40;40.90;;;;;;5026511;28;20034;-62
2023/06/12 03:21:25;;;;;;;7.72;4.53;;;23.40;41.00;;;;;;5017953;28;20362;-62
2023/06/12 03:23:51;;;;;;;7.70;4.13;;;23.40;40.90;;;;;;5008976;28;20030;-62
2023/06/12 03:26:17;;;;;;;7.45;4.20;;;23.40;41.10;;;;;;5016791;28;20017;-62
2023/06/12 03:28:45;;;;;;;8.82;4.57;;;23.40;41.30;;;;;;5011937;28;20053;-62
2023/06/12 03:31:12;;;;;;;7.25;4.05;;;23.40;41.40;;;;;;5022455;28;20033;-62
2023/06/12 03:33:38;;;;;;;8.57;4.35;;;23.30;41.10;;;;;;5022808;28;20040;-62
2023/06/12 03:36:11;;;;;;;9.05;4.32;;;23.30;41.20;;;;;;5014763;28;20036;-62
2023/06/12 03:38:37;;;;;;;7.90;4.50;;;23.30;41.10;;;;;;5035281;28;20048;-62
2023/06/12 03:41:02;;;;;;;7.80;4.20;;;23.30;41.00;;;;;;5033619;28;20434;-62
2023/06/12 03:43:28;;;;;;;7.97;4.40;;;23.30;41.00;;;;;;5018026;28;20099;-62
2023/06/12 03:45:54;;;;;;;8.25;4.53;;;23.30;40.90;;;;;;5027346;28;20079;-62
2023/06/12 03:48:20;;;;;;;9.43;4.55;;;23.30;40.90;;;;;;5034624;28;20036;-63
2023/06/12 03:50:46;;;;;;;7.72;4.63;;;23.30;40.90;;;;;;5028472;28;20017;-62
2023/06/12 03:53:12;;;;;;;7.88;4.45;;;23.30;40.90;;;;;;5034996;28;20022;-63
2023/06/12 03:55:37;;;;;;;7.32;4.18;;;23.30;40.90;;;;;;5036102;28;20409;-62
2023/06/12 03:58:03;;;;;;;7.47;4.20;;;23.40;41.00;;;;;;5029431;28;20187;-62
2023/06/12 04:00:29;;;;;;;8.40;4.50;;;23.30;41.10;;;;;;5026732;28;20041;-62
2023/06/12 04:02:56;;;;;;;8.05;3.92;;;23.30;41.10;;;;;;5029636;28;20112;-62
2023/06/12 04:05:22;;;;;;;8.15;4.65;;;23.30;41.00;;;;;;5031200;28;20021;-62
2023/06/12 04:07:48;;;;;;;7.55;4.07;;;23.30;41.10;;;;;;5035022;28;20100;-62
2023/06/12 04:10:14;;;;;;;7.95;4.10;;;23.30;41.20;;;;;;5025847;28;20030;-63
2023/06/12 04:12:40;;;;;;;7.47;4.40;;;23.40;41.40;;;;;;5029514;28;20033;-62
2023/06/12 04:15:06;;;;;;;6.93;3.90;;;23.40;41.30;;;;;;5032046;28;20061;-62
2023/06/12 04:17:32;;;;;;;8.73;4.85;;;23.40;41.20;;;;;;5031315;28;20088;-63
2023/06/12 04:20:00;;;;;;;6.90;3.70;;;23.40;41.30;;;;;;5033190;28;20017;-62
2023/06/12 04:22:27;;;;;;;8.68;4.25;;;23.40;41.20;;;;;;5033721;28;20356;-62
2023/06/12 04:24:54;;;;;;;8.18;4.07;;;23.40;41.30;;;;;;5029881;28;20438;-62
2023/06/12 04:27:20;;;;;;;13.63;4.78;;;23.40;41.20;;;;;;5019408;28;20029;-61
2023/06/12 04:29:46;;;;;;;9.88;4.45;;;23.40;41.30;;;;;;5008306;28;20109;-62
2023/06/12 04:32:13;;;;;;;8.52;4.15;;;23.40;41.30;;;;;;5027923;28;20463;-62
2023/06/12 04:34:41;;;;;;;7.38;4.05;;;23.40;41.30;;;;;;5047207;28;20037;-62
2023/06/12 04:37:13;;;;;;;8.00;4.97;;;23.40;41.30;;;;;;5030760;28;20129;-62
2023/06/12 04:39:43;;;;;;;7.95;4.50;;;23.40;41.20;;;;;;5014417;28;20034;-62
2023/06/12 04:42:10;;;;;;;6.97;4.20;;;23.40;41.30;;;;;;5032659;28;20033;-62
2023/06/12 04:44:39;;;;;;;7.57;4.63;;;23.40;41.30;;;;;;5023921;28;20087;-61
2023/06/12 04:47:08;;;;;;;9.55;4.35;;;23.40;41.60;;;;;;5034821;28;20032;-62
2023/06/12 04:49:40;;;;;;;8.73;4.38;;;23.50;41.70;;;;;;5027889;28;20027;-62
2023/06/12 04:52:07;;;;;;;7.13;4.28;;;23.50;41.70;;;;;;5033334;28;20112;-62
2023/06/12 04:54:35;;;;;;;7.32;4.15;;;23.50;41.70;;;;;;5035107;28;20473;-62
2023/06/12 04:57:16;;;;;;;7.95;4.55;;;23.50;41.60;;;;;;5035282;28;20036;-62
2023/06/12 04:59:45;;;;;;;8.63;4.73;;;23.50;41.50;;;;;;5035050;28;20506;-62
2023/06/12 05:02:12;;;;;;;7.78;4.10;;;23.60;41.60;;;;;;5055077;28;20507;-62
2023/06/12 05:04:40;;;;;;;9.15;4.35;;;23.60;41.80;;;;;;5048084;28;20056;-62
2023/06/12 05:07:21;;;;;;;7.07;4.30;;;23.60;41.90;;;;;;5038389;28;20063;-62
2023/06/12 05:09:53;;;;;;;8.35;4.28;;;23.70;41.80;;;;;;5036642;28;20072;-62
2023/06/12 05:12:19;;;;;;;9.68;4.57;;;23.80;41.90;;;;;;5044555;28;20021;-62
2023/06/12 05:14:45;;;;;;;7.53;4.47;;;23.80;41.80;;;;;;5054613;28;20093;-62
2023/06/12 05:17:11;;;;;;;10.10;5.10;;;23.90;41.90;;;;;;5017477;28;20096;-62
2023/06/12 05:19:40;;;;;;;7.72;3.97;;;24.00;42.40;;;;;;5029098;28;20072;-63
2023/06/12 05:22:07;;;;;;;8.43;4.28;;;24.20;42.00;;;;;;5030176;28;20029;-62
2023/06/12 05:24:33;;;;;;;7.45;4.65;;;24.20;41.60;;;;;;5029145;28;20108;-62
2023/06/12 05:27:03;;;;;;;6.95;4.38;;;24.40;41.20;;;;;;5031584;28;20464;-62
2023/06/12 05:29:28;;;;;;;7.10;4.18;;;24.50;40.90;;;;;;5027794;28;20034;-62
2023/06/12 05:31:55;;;;;;;7.63;4.40;;;24.60;40.80;;;;;;5045348;28;20056;-62
2023/06/12 05:34:21;;;;;;;10.05;4.85;;;24.80;40.60;;;;;;5025322;28;20053;-63
2023/06/12 05:36:47;;;;;;;7.13;4.40;;;24.90;40.50;;;;;;5027852;28;20394;-62
2023/06/12 05:39:13;;;;;;;7.45;4.35;;;24.90;40.50;;;;;;5011315;28;20390;-62
2023/06/12 05:41:39;;;;;;;8.23;4.22;;;24.90;40.40;;;;;;5025143;28;20078;-62
2023/06/12 05:44:06;;;;;;;7.95;4.40;;;24.90;40.30;;;;;;5030016;28;20395;-62
2023/06/12 05:46:34;;;;;;;7.97;4.60;;;25.00;40.10;;;;;;5025979;28;20025;-63
2023/06/12 05:49:00;;;;;;;9.07;4.35;;;25.10;40.20;;;;;;5010453;28;20116;-63
2023/06/12 05:51:27;;;;;;;9.45;4.28;;;25.10;40.30;;;;;;5024670;28;20550;-62
2023/06/12 05:53:53;;;;;;;7.40;4.13;;;25.20;40.30;;;;;;5020641;28;20283;-63
2023/06/12 05:56:19;;;;;;;8.32;4.32;;;25.30;40.10;;;;;;5034454;28;20021;-63
2023/06/12 05:58:46;;;;;;;8.05;4.35;;;25.30;39.90;;;;;;5031131;28;20087;-62
2023/06/12 06:01:16;;;;;;;7.28;4.30;;;25.50;39.90;;;;;;5034740;28;20026;-63
2023/06/12 06:03:53;;;;;;;6.72;4.30;;;25.50;39.90;;;;;;5007982;28;20026;-62
2023/06/12 06:06:19;;;;;;;8.07;4.88;;;25.60;39.80;;;;;;5030574;28;20030;-63
2023/06/12 06:08:45;;;;;;;8.13;4.32;;;25.80;39.80;;;;;;5010309;28;20559;-62
2023/06/12 06:11:12;;;;;;;8.07;4.43;;;25.80;39.90;;;;;;5028362;28;20072;-62
2023/06/12 06:13:39;;;;;;;8.45;4.28;;;26.00;39.60;;;;;;5010483;28;20068;-62
2023/06/12 06:16:05;;;;;;;8.32;4.75;;;26.00;39.30;;;;;;5023560;28;20045;-62
2023/06/12 06:18:31;;;;;;;8.32;4.45;;;26.20;39.80;;;;;;5021297;28;20048;-62
2023/06/12 06:20:57;;;;;;;7.22;4.57;;;26.30;38.90;;;;;;5025962;28;20451;-62
2023/06/12 06:23:22;;;;;;;7.10;4.22;;;26.30;38.80;;;;;;5026282;28;20029;-63
2023/06/12 06:25:48;;;;;;;8.88;4.60;;;26.40;38.70;;;;;;5023949;28;20115;-62
2023/06/12 06:28:15;;;;;;;11.63;5.10;;;26.50;38.80;;;;;;5026603;28;20061;-62
2023/06/12 06:30:41;;;;;;;8.55;4.82;;;26.50;38.60;;;;;;5030038;28;20114;-62
2023/06/12 06:33:06;;;;;;;8.43;4.88;;;26.60;38.70;;;;;;5015805;28;20029;-63
2023/06/12 06:35:32;;;;;;;8.27;4.57;;;26.60;38.70;;;;;;5027956;28;20113;-62
2023/06/12 06:37:58;;;;;;;8.32;4.82;;;26.60;38.80;;;;;;5029829;28;20351;-63
2023/06/12 06:40:25;;;;;;;8.55;4.70;;;26.70;38.80;;;;;;5025335;28;20048;-62
2023/06/12 06:42:52;;;;;;;9.65;4.97;;;26.70;38.80;;;;;;5026119;28;20466;-62
2023/06/12 06:45:22;;;;;;;8.52;4.97;;;26.90;38.90;;;;;;5023259;28;20167;-62
2023/06/12 06:47:50;;;;;;;7.95;4.65;;;27.00;38.60;;;;;;5031310;28;20025;-63
2023/06/12 06:50:17;;;;;;;9.00;4.55;;;27.10;38.60;;;;;;5025925;28;20026;-62
2023/06/12 06:52:45;;;;;;;8.18;4.40;;;27.30;38.60;;;;;;5028803;28;20047;-63
2023/06/12 06:55:12;;;;;;;8.07;4.57;;;27.40;38.60;;;;;;5033070;28;20113;-62
2023/06/12 06:57:39;;;;;;;8.10;4.70;;;27.50;38.50;;;;;;5036769;28;20044;-63
2023/06/12 07:00:06;;;;;;;9.85;4.85;;;27.60;38.20;;;;;;5038183;28;20050;-62
2023/06/12 07:02:32;;;;;;;8.68;4.45;;;27.70;38.00;;;;;;5045255;28;20131;-63
2023/06/12 07:04:59;;;;;;;7.43;4.40;;;27.80;38.10;;;;;;5040315;28;20029;-63
2023/06/12 07:07:26;;;;;;;8.05;4.68;;;28.00;37.80;;;;;;5034880;28;20014;-61
2023/06/12 07:09:52;;;;;;;7.13;3.88;;;28.10;37.50;;;;;;5042595;28;20056;-62
2023/06/12 07:12:19;;;;;;;7.63;4.45;;;28.30;37.50;;;;;;5028668;28;20025;-61
2023/06/12 07:14:45;;;;;;;9.07;4.18;;;28.40;37.60;;;;;;5028921;28;20029;-62
2023/06/12 07:17:11;;;;;;;7.68;4.63;;;28.50;37.60;;;;;;5026040;28;20485;-63
2023/06/12 07:19:36;;;;;;;9.85;4.65;;;28.70;37.60;;;;;;5028457;28;20049;-64
2023/06/12 07:22:03;;;;;;;8.20;4.40;;;28.80;37.40;;;;;;5023303;28;20033;-63
2023/06/12 07:24:28;;;;;;;13.45;5.15;;;28.90;37.10;;;;;;5025052;28;20040;-62
2023/06/12 07:26:54;;;;;;;11.10;5.43;;;29.00;37.10;;;;;;5024912;28;20084;-64
2023/06/12 07:29:22;;;;;;;11.65;4.88;;;29.20;37.10;;;;;;5010072;28;20036;-63
2023/06/12 07:31:48;;;;;;;7.88;4.90;;;29.40;37.20;;;;;;5011778;28;20022;-62
2023/06/12 07:34:14;;;;;;;7.88;4.47;;;29.40;36.90;;;;;;5027791;28;20075;-63
2023/06/12 07:36:40;;;;;;;10.90;4.75;;;29.60;36.90;;;;;;5026226;28;20065;-62
2023/06/12 07:39:06;;;;;;;7.97;4.55;;;29.60;36.80;;;;;;5042766;28;20402;-63
2023/06/12 07:41:32;;;;;;;9.27;4.10;;;29.70;37.00;;;;;;5024746;28;20384;-63
2023/06/12 07:43:58;;;;;;;8.55;5.00;;;29.80;36.90;;;;;;5022792;28;20340;-62
2023/06/12 07:46:23;;;;;;;7.88;4.25;;;29.90;36.70;;;;;;5027186;28;20357;-63
2023/06/12 07:48:49;;;;;;;8.73;4.10;;;30.00;36.50;;;;;;5026072;28;20146;-63
2023/06/12 07:51:16;;;;;;;9.77;4.93;;;30.10;36.30;;;;;;5002664;28;20056;-63
2023/06/12 07:53:42;;;;;;;7.45;4.20;;;30.30;36.20;;;;;;5025424;28;20366;-63
2023/06/12 07:56:16;;;;;;;;;;;30.40;36.20;;;;;;5025265;28;20028;-63
2023/06/12 07:58:43;;;;;;;7.43;3.80;;;30.40;36.20;;;;;;5012165;28;20364;-62
2023/06/12 08:01:11;;;;;;;7.53;4.53;;;30.50;35.90;;;;;;5026580;28;20021;-60
2023/06/12 08:03:42;;;;;;;7.97;4.50;;;30.70;36.00;;;;;;5016051;28;20026;-61
2023/06/12 08:06:09;;;;;;;;;;;30.70;35.90;;;;;;5021039;28;20014;-61
2023/06/12 08:08:46;;;;;;;7.18;4.00;;;30.80;36.00;;;;;;5026751;28;20078;-61
2023/06/12 08:11:13;;;;;;;6.55;4.32;;;30.80;35.90;;;;;;5026335;28;20030;-61
2023/06/12 08:13:41;;;;;;;8.25;4.50;;;30.90;35.60;;;;;;5005427;28;20033;-61
2023/06/12 08:16:08;;;;;;;8.32;4.45;;;31.00;35.70;;;;;;5028018;28;20029;-61
2023/06/12 08:18:34;;;;;;;8.52;4.70;;;31.10;35.60;;;;;;5030821;28;20435;-61
2023/06/12 08:21:01;;;;;;;7.10;4.13;;;31.20;35.50;;;;;;5052837;28;20029;-61
2023/06/12 08:23:27;;;;;;;7.57;4.57;;;31.30;35.30;;;;;;5030756;28;20041;-62
2023/06/12 08:25:53;;;;;;;7.88;4.50;;;31.40;35.40;;;;;;5028421;28;20017;-62
2023/06/12 08:28:18;;;;;;;7.43;4.40;;;31.50;35.30;;;;;;5025418;28;20025;-62
2023/06/12 08:30:46;;;;;;;8.02;4.47;;;31.60;35.30;;;;;;5030559;28;20109;-62
2023/06/12 08:33:15;;;;;;;7.63;4.38;;;31.70;35.10;;;;;;5031058;28;20328;-62
2023/06/12 08:35:43;;;;;;;7.43;4.47;;;31.70;34.70;;;;;;5028231;28;20528;-62
2023/06/12 08:38:09;;;;;;;7.50;4.53;;;31.80;34.60;;;;;;5030122;28;20386;-62
2023/06/12 08:40:35;;;;;;;6.70;3.80;;;31.90;34.50;;;;;;5029573;28;20032;-61
2023/06/12 08:43:01;;;;;;;10.23;4.18;;;32.00;34.10;;;;;;5029030;28;20030;-62
2023/06/12 08:45:29;;;;;;;6.55;3.67;;;32.10;34.10;;;;;;5028427;28;20029;-62
2023/06/12 08:47:56;;;;;;;8.65;4.72;;;32.20;34.00;;;;;;5023005;28;20033;-62
2023/06/12 08:50:23;;;;;;;7.43;4.53;;;32.20;33.90;;;;;;5027038;28;20033;-62
2023/06/12 08:52:51;;;;;;;8.88;4.93;;;32.30;33.60;;;;;;5032827;28;20040;-62
2023/06/12 08:55:20;;;;;;;7.63;4.20;;;32.40;33.30;;;;;;5030217;28;20034;-61
2023/06/12 08:57:47;;;;;;;7.53;4.57;;;32.40;33.20;;;;;;5032336;28;20051;-63
2023/06/12 09:00:14;;;;;;;8.00;4.40;;;32.50;33.00;;;;;;5025591;28;20412;-62
2023/06/12 09:02:46;;;;;;;7.28;4.60;;;32.60;32.90;;;;;;5055939;28;20056;-62
2023/06/12 09:05:33;;;;;;;8.10;4.68;;;32.70;32.80;;;;;;5055114;28;20027;-62
2023/06/12 09:08:04;;;;;;;8.32;4.65;;;32.80;32.70;;;;;;5022112;28;20021;-62
2023/06/12 09:10:33;;;;;;;7.80;4.65;;;32.90;32.50;;;;;;5012495;28;20125;-62
2023/06/12 09:13:01;;;;;;;9.05;4.25;;;32.90;32.40;;;;;;5032131;28;20037;-62
2023/06/12 09:15:27;;;;;;;8.40;4.43;;;32.90;32.40;;;;;;5025572;28;20108;-62
2023/06/12 09:17:54;;;;;;;7.38;4.53;;;33.10;32.50;;;;;;5054875;28;20322;-62
2023/06/12 09:20:26;;;;;;;6.55;4.05;;;33.20;32.30;;;;;;5041733;28;20021;-62
2023/06/12 09:22:52;;;;;;;7.88;4.65;;;33.20;32.10;;;;;;5043666;28;20040;-62
2023/06/12 09:25:21;;;;;;;9.90;4.70;;;33.30;32.00;;;;;;5054573;28;20323;-62
2023/06/12 09:27:47;;;;;;;6.72;4.28;;;33.40;32.00;;;;;;5055032;28;20033;-62
2023/06/12 09:30:14;;;;;;;10.68;5.13;;;33.50;31.70;;;;;;5031026;28;20112;-62
2023/06/12 09:32:43;;;;;;;8.13;4.80;;;33.60;32.20;;;;;;5055416;28;20025;-62
2023/06/12 09:35:13;;;;;;;7.38;4.60;;;33.60;31.40;;;;;;5055710;28;20044;-62
2023/06/12 09:37:40;;;;;;;9.07;4.28;;;33.70;31.30;;;;;;5055740;28;20068;-62
2023/06/12 09:40:14;;;;;;;9.10;4.38;;;33.80;31.00;;;;;;5035838;28;20164;-62
2023/06/12 09:42:41;;;;;;;8.63;4.20;;;33.90;30.80;;;;;;5029388;28;20036;-62
2023/06/12 09:45:18;;;;;;;9.65;5.03;;;34.00;30.70;;;;;;5055488;28;20028;-62
2023/06/12 09:47:48;;;;;;;6.57;4.13;;;34.10;30.40;;;;;;5037857;28;20091;-62
2023/06/12 09:50:15;;;;;;;;;;;34.20;30.50;;;;;;5046851;28;20014;-62
2023/06/12 09:52:44;;;;;;;6.90;3.97;;;34.20;30.60;;;;;;5037913;28;19909;-62
2023/06/12 09:55:15;;;;;;;6.82;4.10;;;34.20;30.30;;;;;;5055138;28;20033;-62
2023/06/12 09:57:45;;;;;;;7.38;3.70;;;34.30;30.00;;;;;;5054668;28;20136;-63
2023/06/12 10:00:15;;;;;;;7.18;4.10;;;34.30;30.00;;;;;;5035140;28;20034;-62
2023/06/12 10:02:50;;;;;;;8.07;4.20;;;34.30;29.60;;;;;;5048310;28;20029;-62
2023/06/12 10:05:25;;;;;;;6.82;3.95;;;34.30;29.40;;;;;;5053792;28;20025;-62
2023/06/12 10:07:55;;;;;;;7.32;3.70;;;34.40;28.90;;;;;;5054531;28;20049;-62
2023/06/12 10:10:24;;;;;;;;;;;34.40;28.80;;;;;;5054091;28;20033;-62
2023/06/12 10:12:52;;;;;;;6.10;3.85;;;34.40;29.00;;;;;;5049769;28;20030;-62
2023/06/12 10:15:18;;;;;;;8.02;4.32;;;34.50;28.90;;;;;;5032200;28;20025;-62
2023/06/12 10:17:43;;;;;;;7.63;3.90;;;34.50;28.70;;;;;;5045474;28;20115;-62
2023/06/12 10:20:11;;;;;;;7.05;4.43;;;34.60;28.40;;;;;;5054642;28;20090;-62
2023/06/12 10:22:40;;;;;;;7.13;4.07;;;34.60;28.30;;;;;;5054633;28;20122;-62
2023/06/12 10:25:10;;;;;;;7.20;3.85;;;34.60;28.20;;;;;;5042827;28;20036;-62
2023/06/12 10:27:39;;;;;;;8.10;4.05;;;34.70;27.90;;;;;;5054366;28;20028;-62
2023/06/12 10:30:13;;;;;;;6.43;3.80;;;34.70;27.80;;;;;;5054373;28;20033;-62
2023/06/12 10:32:42;;;;;;;5.55;3.25;;;34.70;27.90;;;;;;5053694;28;20037;-62
2023/06/12 10:35:08;;;;;;;7.63;3.67;;;34.70;27.90;;;;;;5037646;28;20041;-62
2023/06/12 10:37:46;;;;;;;6.47;3.95;;;34.80;27.90;;;;;;5054042;28;20017;-62
2023/06/12 10:40:18;;;;;;;8.20;4.22;;;34.90;27.80;;;;;;5054090;28;20147;-62
2023/06/12 10:42:44;;;;;;;10.55;4.13;;;34.90;27.80;;;;;;5054418;28;20036;-62
2023/06/12 10:45:23;;;;;;;6.60;4.07;;;34.90;27.80;;;;;;5030501;28;20078;-62
2023/06/12 10:48:06;;;;;;;6.53;3.97;;;34.90;27.90;;;;;;5029208;28;20037;-62
2023/06/12 10:50:36;;;;;;;6.45;3.83;;;34.90;28.00;;;;;;5052968;28;20025;-62
2023/06/12 10:53:07;;;;;;;7.30;4.47;;;35.00;28.00;;;;;;5054340;28;20079;-62
2023/06/12 10:55:36;;;;;;;6.60;4.00;;;35.00;28.00;;;;;;5037041;28;20075;-62
2023/06/12 10:58:14;;;;;;;7.38;4.40;;;35.00;28.10;;;;;;5049434;28;20065;-62
2023/06/12 11:00:49;;;;;;;8.00;4.30;;;35.00;28.00;;;;;;5044271;28;20025;-62
2023/06/12 11:03:25;;;;;;;7.72;3.78;;;35.00;28.20;;;;;;5052877;28;20086;-62
2023/06/12 11:05:55;;;;;;;10.05;4.60;;;35.00;28.20;;;;;;5034888;28;20059;-62
2023/06/12 11:08:23;;;;;;;7.22;4.43;;;35.00;28.20;;;;;;5050978;28;20036;-62
2023/06/12 11:10:49;;;;;;;7.95;3.97;;;35.00;28.80;;;;;;5052852;28;20045;-62
2023/06/12 11:13:15;;;;;;;6.63;4.15;;;35.00;28.50;;;;;;5052783;28;20073;-62
2023/06/12 11:15:43;;;;;;;9.25;4.57;;;35.00;28.50;;;;;;5030623;28;20447;-62
2023/06/12 11:18:10;;;;;;;8.02;4.38;;;35.00;28.40;;;;;;5032717;28;20498;-62
2023/06/12 11:20:36;;;;;;;6.57;4.38;;;34.90;28.50;;;;;;5035462;28;20018;-62
2023/06/12 11:23:02;;;;;;;6.32;3.85;;;35.00;28.80;;;;;;5028821;28;20048;-62
2023/06/12 11:25:44;;;;;;;7.47;3.97;;;35.00;28.90;;;;;;5031727;28;20393;-62
2023/06/12 11:28:12;;;;;;;6.85;4.03;;;35.00;28.90;;;;;;5033675;28;20034;-62
2023/06/12 11:30:40;;;;;;;6.75;3.72;;;35.10;29.00;;;;;;5020451;28;20116;-62
2023/06/12 11:33:07;;;;;;;6.30;3.88;;;35.10;29.20;;;;;;5036400;28;20033;-61
2023/06/12 11:35:37;;;;;;;6.63;4.13;;;35.10;29.20;;;;;;5041987;28;20103;-62
2023/06/12 11:38:05;;;;;;;7.55;4.10;;;35.10;29.30;;;;;;5029810;28;20068;-61
2023/06/12 11:40:31;;;;;;;6.88;3.90;;;35.10;29.30;;;;;;5033304;28;20029;-61
2023/06/12 11:42:57;;;;;;;6.63;4.25;;;35.10;29.40;;;;;;5031707;28;20316;-62
2023/06/12 11:45:22;;;;;;;7.90;4.25;;;35.10;29.30;;;;;;5032059;28;20362;-62
2023/06/12 11:47:50;;;;;;;7.72;4.00;;;35.00;29.40;;;;;;5031299;28;20029;-62
2023/06/12 11:50:19;;;;;;;7.30;3.92;;;35.00;29.40;;;;;;5026499;28;20017;-61
2023/06/12 11:52:45;;;;;;;7.85;4.40;;;34.90;29.60;;;;;;5035675;28;20120;-62
2023/06/12 11:55:14;;;;;;;7.00;3.85;;;34.70;29.70;;;;;;5034493;28;20119;-62
2023/06/12 11:57:48;;;;;;;6.85;4.20;;;34.60;29.90;;;;;;5026861;28;20033;-62
2023/06/12 12:00:18;;;;;;;7.90;4.53;;;34.50;30.00;;;;;;5031675;28;20596;-63
2023/06/12 12:02:55;;;;;;;7.65;4.80;;;34.40;30.00;;;;;;5031338;28;20076;-62
2023/06/12 12:05:23;;;;;;;7.45;4.60;;;34.10;30.10;;;;;;5027777;28;20454;-62
2023/06/12 12:07:59;;;;;;;6.70;4.10;;;33.80;30.40;;;;;;5046424;28;20400;-62
2023/06/12 12:10:30;;;;;;;6.78;3.92;;;33.60;30.50;;;;;;5025649;28;20366;-61
2023/06/12 12:12:59;;;;;;;6.75;4.20;;;33.50;30.50;;;;;;5044544;28;20132;-62
2023/06/12 12:15:29;;;;;;;8.60;4.40;;;33.50;30.60;;;;;;5031582;28;20059;-61
2023/06/12 12:17:56;;;;;;;8.10;4.53;;;33.50;30.70;;;;;;5033770;28;20113;-62
2023/06/12 12:20:22;;;;;;;8.25;4.32;;;33.40;30.90;;;;;;5036792;28;20450;-62
2023/06/12 12:22:50;;;;;;;6.78;4.22;;;33.40;30.90;;;;;;5048784;28;20382;-62
2023/06/12 12:25:21;;;;;;;7.22;4.20;;;33.40;30.70;;;;;;5043707;28;20394;-62
2023/06/12 12:27:49;;;;;;;6.90;4.28;;;33.40;30.80;;;;;;5035071;28;20029;-62
2023/06/12 12:30:20;;;;;;;8.82;4.78;;;33.40;30.80;;;;;;5039197;28;20036;-63
2023/06/12 12:32:52;;;;;;;7.93;4.15;;;33.40;30.90;;;;;;5023487;28;20033;-61
2023/06/12 12:35:19;;;;;;;7.65;4.22;;;33.40;30.70;;;;;;5024913;28;20025;-62
2023/06/12 12:37:47;;;;;;;7.93;4.18;;;33.30;30.60;;;;;;5030831;28;20063;-62
2023/06/12 12:40:14;;;;;;;6.53;4.07;;;33.10;30.70;;;;;;5032210;28;20030;-61
2023/06/12 12:42:42;;;;;;;8.00;4.68;;;33.10;30.90;;;;;;5028041;28;20034;-62
2023/06/12 12:45:10;;;;;;;6.38;4.20;;;33.00;31.00;;;;;;5034146;28;20358;-62
2023/06/12 12:47:36;;;;;;;7.65;4.70;;;33.00;31.00;;;;;;5035202;28;20025;-62
2023/06/12 12:50:03;;;;;;;7.18;4.55;;;32.90;30.90;;;;;;5035129;28;20124;-62
2023/06/12 12:52:31;;;;;;;6.57;4.32;;;32.90;31.10;;;;;;5034085;28;20038;-62